Time;durP1;ratioP1;P1;durP2;ratioP2;P2;SDS_P1;SDS_P2;PMS_P1;PMS_P2;Temp;Humidity;BMP_temperature;BMP_pressure;BME280_temperature;BME280_humidity;BME280_pressure;Samples;Min_cycle;Max_cycle;Signal;HPM_P1;HPM_P2
2022/10/10 00:01:52;;;;;;;28.90;19.00;;;;;;;7.04;100.00;98183.24;107967;1266;58957;-78
2022/10/10 00:04:22;;;;;;;;;;;;;;;7.04;100.00;98181.04;107921;1267;58945;-79
2022/10/10 00:06:52;;;;;;;37.40;24.50;;;;;;;7.03;100.00;98177.58;107833;1267;69849;-78
2022/10/10 00:09:21;;;;;;;33.80;21.20;;;;;;;7.02;100.00;98178.48;107680;1266;69216;-79
2022/10/10 00:11:52;;;;;;;26.90;19.20;;;;;;;7.01;100.00;98176.29;107690;1267;68285;-78
2022/10/10 00:14:23;;;;;;;34.60;21.50;;;;;;;7.00;100.00;98182.09;107825;1267;58987;-78
2022/10/10 00:16:53;;;;;;;28.60;19.70;;;;;;;6.98;100.00;98183.02;107935;1267;58884;-78
2022/10/10 00:19:23;;;;;;;32.30;22.40;;;;;;;6.95;100.00;98178.65;107798;1264;70457;-78
2022/10/10 00:21:53;;;;;;;;;;;;;;;6.91;100.00;98172.58;107780;1263;68476;-78
2022/10/10 00:24:23;;;;;;;40.80;21.90;;;;;;;6.86;100.00;98174.91;107877;1263;69300;-78
2022/10/10 00:26:52;;;;;;;50.30;27.30;;;;;;;6.82;100.00;98181.67;108218;1266;58872;-77
2022/10/10 00:29:24;;;;;;;48.60;28.00;;;;;;;6.80;100.00;98184.04;107755;1262;58940;-78
2022/10/10 00:31:54;;;;;;;51.20;25.20;;;;;;;6.77;100.00;98178.45;107860;1267;70111;-78
2022/10/10 00:34:24;;;;;;;56.10;33.50;;;;;;;6.75;100.00;98185.80;107961;1262;69141;-78
2022/10/10 00:36:54;;;;;;;55.50;31.70;;;;;;;6.72;100.00;98184.55;107966;1267;69286;-79
2022/10/10 00:39:23;;;;;;;37.20;23.00;;;;;;;6.67;100.00;98181.66;108065;1264;58918;-78
2022/10/10 00:41:52;;;;;;;42.70;24.90;;;;;;;6.60;100.00;98180.91;108104;1257;58884;-79
2022/10/10 00:44:21;;;;;;;44.70;26.10;;;;;;;6.53;100.00;98185.75;107875;1266;70623;-78
2022/10/10 00:46:51;;;;;;;;;;;;;;;6.48;100.00;98185.80;107860;1262;68384;-79
2022/10/10 00:49:23;;;;;;;32.40;17.20;;;;;;;6.44;100.00;98185.45;107881;1267;69147;-78
2022/10/10 00:51:55;;;;;;;58.70;33.20;;;;;;;6.43;100.00;98180.28;107970;1265;58874;-78
2022/10/10 00:54:26;;;;;;;37.80;23.70;;;;;;;6.43;100.00;98182.23;108098;1266;58959;-78
2022/10/10 00:57:04;;;;;;;41.10;24.70;;;;;;;6.42;100.00;98184.48;107902;1263;70571;-78
2022/10/10 00:59:37;;;;;;;57.80;31.10;;;;;;;6.41;100.00;98185.91;107909;1262;68316;-78
2022/10/10 01:02:06;;;;;;;33.00;20.60;;;;;;;6.44;100.00;98186.50;107970;1263;68306;-79
2022/10/10 01:04:40;;;;;;;33.20;20.90;;;;;;;6.44;100.00;98184.77;107924;1267;59000;-79
2022/10/10 01:07:20;;;;;;;50.40;23.40;;;;;;;6.43;100.00;98182.91;107969;1263;58948;-79
2022/10/10 01:09:56;;;;;;;31.30;19.70;;;;;;;6.42;100.00;98185.89;107956;1263;70634;-79
2022/10/10 01:12:57;;;;;;;31.60;19.40;;;;;;;6.43;100.00;98188.27;107837;1267;69846;-79
2022/10/10 01:15:41;;;;;;;30.00;18.30;;;;;;;6.46;100.00;98185.35;107646;1268;69247;-79
2022/10/10 01:18:32;;;;;;;24.90;17.80;;;;;;;6.48;100.00;98183.75;107886;1266;58947;-79
2022/10/10 01:21:03;;;;;;;28.80;19.20;;;;;;;6.50;100.00;98178.25;107864;1267;58954;-79
2022/10/10 01:24:23;;;;;;;30.20;17.30;;;;;;;6.54;100.00;98182.05;107871;1267;69807;-79
2022/10/10 01:27:17;;;;;;;29.10;18.40;;;;;;;6.60;100.00;98187.50;107773;1267;68154;-79
2022/10/10 01:29:51;;;;;;;34.00;19.20;;;;;;;6.65;100.00;98175.16;108219;1267;69785;-79
2022/10/10 01:32:44;;;;;;;33.70;20.70;;;;;;;6.71;100.00;98171.62;107883;1267;58937;-79
2022/10/10 01:35:26;;;;;;;26.60;16.10;;;;;;;6.79;100.00;98169.86;107852;1267;58873;-78
2022/10/10 01:38:08;;;;;;;87.20;39.30;;;;;;;6.83;100.00;98171.73;108080;1263;70499;-77
2022/10/10 01:40:47;;;;;;;78.20;38.00;;;;;;;6.84;100.00;98180.70;107750;1263;67324;-79
2022/10/10 01:43:18;;;;;;;64.00;32.90;;;;;;;6.86;100.00;98181.15;107895;1267;69142;-78
2022/10/10 01:45:52;;;;;;;69.30;33.80;;;;;;;6.87;100.00;98180.55;107818;1267;58974;-78
2022/10/10 01:48:28;;;;;;;124.10;49.50;;;;;;;6.91;100.00;98186.96;107961;1258;58901;-79
2022/10/10 01:51:08;;;;;;;35.70;22.50;;;;;;;6.92;100.00;98183.84;107970;1263;70520;-79
2022/10/10 01:53:56;;;;;;;90.20;43.00;;;;;;;6.93;100.00;98181.71;107898;1262;69260;-79
2022/10/10 01:56:48;;;;;;;54.00;29.30;;;;;;;6.93;100.00;98182.54;108006;1266;69084;-79
2022/10/10 01:59:19;;;;;;;68.50;35.00;;;;;;;6.97;100.00;98182.70;107905;1267;58880;-79
2022/10/10 02:02:28;;;;;;;57.90;30.10;;;;;;;6.99;100.00;98183.34;107863;1267;58968;-79
2022/10/10 02:05:10;;;;;;;61.30;33.20;;;;;;;7.00;100.00;98175.83;107907;1267;69758;-78
2022/10/10 02:08:10;;;;;;;30.80;18.40;;;;;;;7.03;100.00;98177.58;107926;1266;68957;-78
2022/10/10 02:10:46;;;;;;;110.30;37.40;;;;;;;7.03;100.00;98180.36;107925;1267;68438;-78
2022/10/10 02:13:20;;;;;;;59.60;31.70;;;;;;;7.00;100.00;98176.86;107878;1262;58925;-78
2022/10/10 02:15:56;;;;;;;57.90;30.30;;;;;;;6.96;100.00;98181.02;107999;1267;58931;-78
2022/10/10 02:18:33;;;;;;;80.00;30.60;;;;;;;6.94;100.00;98187.70;107978;1267;70591;-79
2022/10/10 02:21:09;;;;;;;55.90;27.40;;;;;;;6.90;100.00;98183.70;107996;1267;69231;-78
2022/10/10 02:23:45;;;;;;;60.50;30.70;;;;;;;6.88;100.00;98185.18;108030;1265;68479;-78
2022/10/10 02:26:18;;;;;;;54.10;28.10;;;;;;;6.91;100.00;98187.83;107967;1266;58918;-78
2022/10/10 02:28:58;;;;;;;68.80;34.30;;;;;;;6.93;100.00;98195.56;107852;1267;58955;-78
2022/10/10 02:31:31;;;;;;;;;;;;;;;6.96;100.00;98195.42;108010;1267;71249;-78
2022/10/10 02:34:18;;;;;;;56.30;30.90;;;;;;;6.99;100.00;98196.66;108548;1262;68383;-78
2022/10/10 02:36:53;;;;;;;59.60;32.80;;;;;;;7.05;100.00;98202.11;107904;1265;69073;-78
2022/10/10 02:39:29;;;;;;;56.00;28.90;;;;;;;7.08;100.00;98206.11;108051;1266;58917;-78
2022/10/10 02:41:59;;;;;;;53.80;27.80;;;;;;;7.11;100.00;98208.55;108078;1263;58914;-78
2022/10/10 02:44:30;;;;;;;33.90;19.10;;;;;;;7.14;100.00;98209.12;108147;1263;70579;-79
2022/10/10 02:47:03;;;;;;;53.60;26.60;;;;;;;7.14;100.00;98215.37;107897;1262;68717;-78
2022/10/10 02:49:34;;;;;;;69.20;33.80;;;;;;;7.15;100.00;98214.12;107794;1256;68552;-78
2022/10/10 02:52:06;;;;;;;45.60;26.90;;;;;;;7.17;100.00;98215.44;107674;1263;58959;-78
2022/10/10 02:54:38;;;;;;;60.40;34.40;;;;;;;7.19;100.00;98218.09;107686;1263;58901;-78
2022/10/10 02:57:10;;;;;;;62.00;35.40;;;;;;;7.21;100.00;98219.91;107960;1263;69880;-78
2022/10/10 02:59:40;;;;;;;58.20;33.60;;;;;;;7.24;100.00;98219.45;107812;1264;69062;-78
2022/10/10 03:02:09;;;;;;;50.90;29.10;;;;;;;7.26;100.00;98220.89;107804;1267;69965;-78
2022/10/10 03:04:39;;;;;;;49.40;29.80;;;;;;;7.30;100.00;98219.50;107842;1260;59035;-78
2022/10/10 03:07:08;;;;;;;56.60;31.20;;;;;;;7.34;100.00;98224.49;107757;1267;58868;-77
2022/10/10 03:09:38;;;;;;;59.00;29.20;;;;;;;7.38;100.00;98224.33;107870;1266;70675;-78
2022/10/10 03:12:07;;;;;;;44.50;26.60;;;;;;;7.41;100.00;98223.14;107847;1257;69210;-78
2022/10/10 03:14:37;;;;;;;56.60;27.40;;;;;;;7.45;100.00;98225.76;107979;1263;68608;-78
2022/10/10 03:17:07;;;;;;;58.90;29.30;;;;;;;7.47;100.00;98228.05;107676;1263;59025;-77
2022/10/10 03:19:35;;;;;;;55.90;25.20;;;;;;;7.48;100.00;98228.19;107740;1265;58957;-78
2022/10/10 03:22:05;;;;;;;53.20;26.30;;;;;;;7.48;100.00;98229.89;107952;1267;70541;-77
2022/10/10 03:24:35;;;;;;;67.60;26.00;;;;;;;7.49;100.00;98229.02;107784;1265;69138;-76
2022/10/10 03:27:05;;;;;;;54.70;25.40;;;;;;;7.50;100.00;98230.90;107840;1267;68494;-77
2022/10/10 03:29:34;;;;;;;39.90;21.00;;;;;;;7.50;100.00;98233.83;107643;1266;58982;-79
2022/10/10 03:32:05;;;;;;;37.60;20.80;;;;;;;7.51;100.00;98233.41;107864;1263;58923;-77
2022/10/10 03:34:39;;;;;;;31.40;17.90;;;;;;;7.53;100.00;98236.81;107782;1267;69837;-76
2022/10/10 03:37:08;;;;;;;;;;;;;;;7.53;100.00;98237.64;107913;1267;69892;-76
2022/10/10 03:39:38;;;;;;;53.80;25.10;;;;;;;7.54;100.00;98238.13;108564;1266;68510;-77
2022/10/10 03:42:09;;;;;;;49.00;27.30;;;;;;;7.55;100.00;98238.42;107958;1262;58889;-78
2022/10/10 03:44:37;;;;;;;40.20;22.00;;;;;;;7.58;100.00;98237.40;108108;1266;58986;-77
2022/10/10 03:47:07;;;;;;;31.60;17.70;;;;;;;7.62;100.00;98238.11;108011;1263;69638;-77
2022/10/10 03:49:38;;;;;;;34.20;19.10;;;;;;;7.65;100.00;98240.38;107806;1265;68501;-77
2022/10/10 03:52:07;;;;;;;56.50;27.90;;;;;;;7.66;100.00;98243.10;107882;1264;68676;-78
2022/10/10 03:54:37;;;;;;;48.70;28.50;;;;;;;7.66;100.00;98243.42;107795;1264;58982;-76
2022/10/10 03:57:06;;;;;;;43.90;22.50;;;;;;;7.69;100.00;98239.68;107997;1258;58898;-76
2022/10/10 03:59:35;;;;;;;41.10;21.70;;;;;;;7.72;100.00;98237.63;107912;1267;68815;-77
2022/10/10 04:02:05;;;;;;;42.80;23.80;;;;;;;7.75;100.00;98236.06;107988;1263;69966;-76
2022/10/10 04:04:34;;;;;;;53.00;26.40;;;;;;;7.79;100.00;98235.41;107783;1267;69804;-78
2022/10/10 04:07:03;;;;;;;76.40;31.80;;;;;;;7.80;100.00;98232.22;108080;1263;59353;-77
2022/10/10 04:09:32;;;;;;;60.50;28.60;;;;;;;7.80;100.00;98235.51;108012;1267;59147;-78
2022/10/10 04:12:01;;;;;;;71.90;32.60;;;;;;;7.83;100.00;98233.80;107849;1262;70392;-78
2022/10/10 04:14:31;;;;;;;40.40;24.00;;;;;;;7.85;100.00;98237.69;107972;1260;67533;-78
2022/10/10 04:17:00;;;;;;;86.60;33.80;;;;;;;7.88;100.00;98238.23;107972;1267;69894;-78
2022/10/10 04:19:31;;;;;;;52.30;27.40;;;;;;;7.91;100.00;98237.56;107921;1257;58956;-77
2022/10/10 04:22:00;;;;;;;50.80;28.20;;;;;;;7.95;100.00;98239.27;107750;1267;58956;-78
2022/10/10 04:24:30;;;;;;;39.60;25.50;;;;;;;7.99;100.00;98244.31;107953;1267;70630;-77
2022/10/10 04:26:59;;;;;;;40.50;25.20;;;;;;;8.02;100.00;98246.72;107758;1262;69918;-78
2022/10/10 04:29:28;;;;;;;40.70;23.80;;;;;;;8.07;100.00;98246.69;107874;1267;68362;-79
2022/10/10 04:31:57;;;;;;;37.20;24.10;;;;;;;8.12;100.00;98248.35;108108;1263;59267;-79
2022/10/10 04:34:27;;;;;;;34.60;24.00;;;;;;;8.17;100.00;98247.41;107937;1263;58870;-79
2022/10/10 04:36:56;;;;;;;44.90;24.90;;;;;;;8.21;100.00;98252.39;108068;1262;69807;-79
2022/10/10 04:39:25;;;;;;;41.30;22.40;;;;;;;8.25;100.00;98254.15;107885;1266;68271;-79
2022/10/10 04:41:55;;;;;;;33.80;22.10;;;;;;;8.26;100.00;98256.14;107977;1267;68591;-77
2022/10/10 04:44:24;;;;;;;32.20;20.00;;;;;;;8.27;100.00;98256.09;108455;1265;59742;-79
2022/10/10 04:46:53;;;;;;;38.70;21.90;;;;;;;8.28;100.00;98256.77;107884;1263;58918;-79
2022/10/10 04:49:22;;;;;;;41.70;26.30;;;;;;;8.30;100.00;98255.63;108013;1262;69804;-80
2022/10/10 04:51:51;;;;;;;41.60;25.00;;;;;;;8.32;100.00;98256.02;107942;1264;69219;-80
2022/10/10 04:54:21;;;;;;;34.30;20.20;;;;;;;8.34;100.00;98252.96;108116;1263;69335;-78
2022/10/10 04:56:49;;;;;;;30.20;20.50;;;;;;;8.36;100.00;98253.23;107863;1264;58977;-80
2022/10/10 04:59:19;;;;;;;36.30;24.10;;;;;;;8.39;100.00;98249.44;108103;1266;58896;-79
2022/10/10 05:01:48;;;;;;;39.60;27.80;;;;;;;8.42;100.00;98251.23;107874;1267;70176;-76
2022/10/10 05:04:19;;;;;;;30.10;21.20;;;;;;;8.43;100.00;98248.90;107876;1262;68249;-78
2022/10/10 05:06:48;;;;;;;32.40;20.90;;;;;;;8.43;100.00;98252.20;107944;1267;69189;-78
2022/10/10 05:09:17;;;;;;;26.50;17.40;;;;;;;8.44;100.00;98252.85;108045;1266;58918;-77
2022/10/10 05:11:46;;;;;;;23.90;15.70;;;;;;;8.46;100.00;98259.85;107856;1262;58890;-78
2022/10/10 05:14:16;;;;;;;25.70;18.90;;;;;;;8.48;100.00;98259.23;107711;1262;69874;-76
2022/10/10 05:16:45;;;;;;;26.60;17.90;;;;;;;8.52;100.00;98262.02;107823;1263;70819;-77
2022/10/10 05:19:14;;;;;;;30.80;21.60;;;;;;;8.55;100.00;98261.86;107792;1267;69246;-77
2022/10/10 05:21:42;;;;;;;24.90;18.30;;;;;;;8.56;100.00;98265.42;107747;1263;58920;-77
2022/10/10 05:24:13;;;;;;;21.50;16.20;;;;;;;8.60;100.00;98266.80;107788;1264;58848;-77
2022/10/10 05:26:42;;;;;;;24.10;18.40;;;;;;;8.64;100.00;98265.38;107949;1267;70369;-77
2022/10/10 05:29:11;;;;;;;24.10;17.20;;;;;;;8.69;100.00;98263.39;107992;1266;69290;-77
2022/10/10 05:31:39;;;;;;;23.50;17.30;;;;;;;8.75;100.00;98259.61;107893;1267;69285;-77
2022/10/10 05:34:16;;;;;;;25.60;17.70;;;;;;;8.80;100.00;98256.89;107798;1263;58894;-77
2022/10/10 05:36:46;;;;;;;24.50;19.40;;;;;;;8.89;100.00;98259.04;107766;1266;58906;-77
2022/10/10 05:39:15;;;;;;;16.40;12.00;;;;;;;8.97;100.00;98266.24;108066;1263;70448;-77
2022/10/10 05:41:43;;;;;;;18.80;14.00;;;;;;;9.04;100.00;98261.35;107899;1264;68673;-77
2022/10/10 05:44:13;;;;;;;;;;;;;;;9.08;100.00;98263.24;107904;1263;69308;-77
2022/10/10 05:46:42;;;;;;;25.20;18.90;;;;;;;9.12;100.00;98265.48;107841;1263;58990;-77
2022/10/10 05:49:11;;;;;;;23.10;17.20;;;;;;;9.20;100.00;98267.14;108628;1265;58959;-78
2022/10/10 05:51:41;;;;;;;23.90;18.20;;;;;;;9.28;100.00;98273.15;108108;1265;544744;-77
2022/10/10 05:54:10;;;;;;;23.40;17.60;;;;;;;9.37;100.00;98268.48;107707;1267;69879;-77
2022/10/10 05:56:39;;;;;;;24.00;17.40;;;;;;;9.47;100.00;98274.20;107977;1267;69165;-77
2022/10/10 05:59:08;;;;;;;22.30;18.00;;;;;;;9.57;100.00;98280.92;107919;1264;58950;-78
2022/10/10 06:01:37;;;;;;;21.60;15.40;;;;;;;9.69;100.00;98276.98;107788;1267;58907;-78
2022/10/10 06:04:05;;;;;;;17.70;14.80;;;;;;;9.79;100.00;98278.20;107933;1267;70106;-77
2022/10/10 06:06:34;;;;;;;26.30;19.60;;;;;;;9.92;100.00;98280.94;108015;1263;69060;-77
2022/10/10 06:09:03;;;;;;;31.10;21.90;;;;;;;10.01;100.00;98274.86;107932;1263;68536;-77
2022/10/10 06:11:32;;;;;;;22.80;18.00;;;;;;;10.09;100.00;98274.18;107912;1262;58975;-78
2022/10/10 06:14:01;;;;;;;27.20;19.40;;;;;;;10.16;99.91;98280.77;107727;1263;58959;-77
2022/10/10 06:16:30;;;;;;;23.00;16.50;;;;;;;10.29;99.96;98277.80;108052;1266;71446;-78
2022/10/10 06:18:59;;;;;;;22.80;15.50;;;;;;;10.39;98.83;98278.62;108090;1260;69179;-77
2022/10/10 06:21:28;;;;;;;20.90;16.10;;;;;;;10.62;98.47;98281.23;107937;1267;68547;-77
2022/10/10 06:23:56;;;;;;;16.90;13.80;;;;;;;11.03;98.19;98282.64;108060;1266;58963;-78
2022/10/10 06:26:25;;;;;;;19.30;16.30;;;;;;;11.43;95.66;98285.09;107897;1263;59082;-76
2022/10/10 06:28:54;;;;;;;18.00;16.00;;;;;;;11.63;94.23;98284.29;107974;1263;70525;-77
2022/10/10 06:31:23;;;;;;;20.30;14.80;;;;;;;11.97;92.66;98292.47;108057;1263;69220;-78
2022/10/10 06:33:52;;;;;;;19.10;15.90;;;;;;;12.48;90.80;98294.75;107894;1263;69310;-74
2022/10/10 06:36:21;;;;;;;16.30;14.60;;;;;;;12.80;87.67;98293.85;107846;1262;58984;-78
2022/10/10 06:38:50;;;;;;;16.10;13.40;;;;;;;13.09;86.61;98296.93;107971;1262;58906;-78
2022/10/10 06:41:18;;;;;;;15.80;14.00;;;;;;;13.54;90.39;98295.02;108032;1266;68855;-78
2022/10/10 06:43:49;;;;;;;13.90;12.00;;;;;;;13.92;90.96;98296.13;107871;1266;69180;-78
2022/10/10 06:46:18;;;;;;;14.00;12.00;;;;;;;14.04;85.67;98297.88;107742;1267;70078;-76
2022/10/10 06:48:46;;;;;;;10.50;9.40;;;;;;;14.13;83.12;98297.75;107944;1262;58959;-77
2022/10/10 06:51:17;;;;;;;18.80;16.30;;;;;;;14.42;82.06;98298.25;107856;1267;58887;-78
2022/10/10 06:53:46;;;;;;;15.50;11.80;;;;;;;14.72;80.35;98299.76;108255;1266;69687;-76
2022/10/10 06:56:19;;;;;;;15.10;12.10;;;;;;;15.26;82.90;98300.88;108759;1266;69165;-76
2022/10/10 06:58:55;;;;;;;15.50;13.40;;;;;;;15.86;82.13;98300.73;108344;1262;69576;-76
2022/10/10 07:01:25;;;;;;;14.20;10.90;;;;;;;16.33;78.44;98292.46;107970;1262;58878;-73
2022/10/10 07:03:54;;;;;;;10.00;9.00;;;;;;;16.83;78.46;98298.88;107899;1266;58920;-77
2022/10/10 07:06:23;;;;;;;12.20;10.80;;;;;;;17.04;70.46;98299.23;107984;1262;70640;-77
2022/10/10 07:08:52;;;;;;;12.90;11.60;;;;;;;17.15;66.18;98299.83;107827;1262;69932;-78
2022/10/10 07:11:21;;;;;;;14.00;12.30;;;;;;;17.32;65.84;98296.30;108033;1263;68391;-75
2022/10/10 07:13:52;;;;;;;16.00;13.30;;;;;;;17.53;65.22;98299.02;107748;1266;58949;-76
2022/10/10 07:16:22;;;;;;;12.20;10.90;;;;;;;17.59;63.34;98302.02;107827;1266;58899;-77
2022/10/10 07:18:51;;;;;;;9.90;8.90;;;;;;;17.91;63.63;98298.67;108001;1263;70605;-77
2022/10/10 07:21:20;;;;;;;12.00;10.00;;;;;;;18.20;62.90;98302.42;107836;1263;69174;-77
2022/10/10 07:23:49;;;;;;;13.20;11.50;;;;;;;18.46;61.44;98301.72;107940;1264;69272;-77
2022/10/10 07:26:21;;;;;;;8.60;7.80;;;;;;;18.58;61.57;98303.95;107849;1266;58959;-74
2022/10/10 07:28:50;;;;;;;9.10;8.00;;;;;;;18.96;59.45;98304.17;107755;1265;58959;-75
2022/10/10 07:31:20;;;;;;;8.90;8.00;;;;;;;19.33;59.78;98303.39;108120;1258;69599;-77
2022/10/10 07:33:50;;;;;;;8.00;7.20;;;;;;;19.92;58.63;98301.32;107854;1262;69146;-75
2022/10/10 07:36:19;;;;;;;;;;;;;;;20.25;56.48;98297.38;107997;1262;69271;-75
2022/10/10 07:38:53;;;;;;;9.80;8.80;;;;;;;20.69;56.99;98296.13;108016;1266;58932;-75
2022/10/10 07:41:22;;;;;;;10.70;9.50;;;;;;;20.91;56.64;98298.02;107877;1264;58893;-75
2022/10/10 07:43:55;;;;;;;10.10;8.10;;;;;;;20.44;54.04;98294.98;107935;1266;69665;-74
2022/10/10 07:46:24;;;;;;;7.70;6.80;;;;;;;20.77;55.46;98296.64;108076;1266;68289;-75
2022/10/10 07:48:54;;;;;;;9.00;7.60;;;;;;;21.15;54.61;98294.34;108059;1262;69292;-75
2022/10/10 07:51:23;;;;;;;9.50;7.50;;;;;;;21.39;53.77;98294.03;108125;1263;58828;-75
2022/10/10 07:53:52;;;;;;;10.10;7.80;;;;;;;21.09;50.96;98294.74;108184;1263;58846;-74
2022/10/10 07:56:21;;;;;;;9.10;8.10;;;;;;;20.67;51.63;98291.52;107966;1265;71726;-75
2022/10/10 07:58:50;;;;;;;9.80;8.70;;;;;;;20.80;53.19;98292.41;107968;1261;69517;-74
2022/10/10 08:01:19;;;;;;;8.90;7.10;;;;;;;20.73;52.47;98292.56;108180;1263;69322;-74
2022/10/10 08:03:48;;;;;;;9.00;7.20;;;;;;;21.27;52.34;98294.00;107970;1266;58894;-76
2022/10/10 08:06:17;;;;;;;8.80;7.90;;;;;;;21.10;50.53;98293.92;107949;1263;58835;-74
2022/10/10 08:08:49;;;;;;;8.70;7.70;;;;;;;21.84;50.82;98295.70;108069;1264;70645;-74
2022/10/10 08:11:20;;;;;;;7.40;6.30;;;;;;;22.28;49.42;98289.30;108088;1263;69203;-74
2022/10/10 08:13:50;;;;;;;6.80;6.20;;;;;;;22.51;48.58;98294.27;108022;1252;69149;-73
2022/10/10 08:16:19;;;;;;;;;;;;;;;22.97;46.82;98295.35;107885;1263;58938;-76
2022/10/10 08:18:53;;;;;;;6.70;6.10;;;;;;;22.75;45.37;98293.63;107972;1263;58897;-76
2022/10/10 08:21:27;;;;;;;7.60;6.40;;;;;;;23.45;45.11;98297.61;107890;1262;70096;-74
2022/10/10 08:24:01;;;;;;;7.30;6.50;;;;;;;23.50;44.98;98293.90;107807;1267;69092;-74
2022/10/10 08:26:30;;;;;;;7.10;6.00;;;;;;;23.86;44.89;98292.63;107883;1263;68486;-74
2022/10/10 08:29:00;;;;;;;7.90;7.10;;;;;;;23.96;44.42;98294.83;107862;1265;58953;-74
2022/10/10 08:31:29;;;;;;;;;;;;;;;24.19;42.60;98291.19;107902;1266;58866;-74
2022/10/10 08:33:58;;;;;;;7.60;6.20;;;;;;;24.33;42.49;98287.80;108010;1266;70017;-74
2022/10/10 08:36:27;;;;;;;7.30;6.20;;;;;;;24.50;42.03;98286.94;107893;1266;69678;-72
2022/10/10 08:38:59;;;;;;;5.90;4.80;;;;;;;24.52;42.29;98285.23;107749;1262;69927;-76
2022/10/10 08:41:50;;;;;;;6.80;6.20;;;;;;;24.86;41.65;98286.39;107637;1262;58921;-74
2022/10/10 08:44:38;;;;;;;8.60;6.40;;;;;;;24.81;42.16;98286.50;107838;1266;58935;-74
2022/10/10 08:47:33;;;;;;;7.20;6.50;;;;;;;24.32;40.75;98288.34;107774;1267;70597;-73
2022/10/10 08:50:11;;;;;;;7.20;6.50;;;;;;;23.72;42.94;98293.91;107810;1263;68057;-74
2022/10/10 08:53:08;;;;;;;9.40;6.80;;;;;;;23.32;44.05;98287.18;107828;1263;69286;-74
2022/10/10 08:55:42;;;;;;;7.00;5.90;;;;;;;23.29;43.72;98288.59;107930;1266;58913;-74
2022/10/10 08:58:32;;;;;;;7.00;6.30;;;;;;;23.21;44.52;98288.16;107755;1257;58943;-74
2022/10/10 09:01:22;;;;;;;6.70;5.80;;;;;;;24.12;42.90;98286.86;108102;1266;70438;-73
2022/10/10 09:04:00;;;;;;;6.10;5.40;;;;;;;24.27;42.40;98283.51;107976;1265;68584;-73
2022/10/10 09:06:53;;;;;;;7.10;5.90;;;;;;;24.86;40.85;98278.77;108189;1267;69267;-74
2022/10/10 09:09:29;;;;;;;6.50;5.40;;;;;;;24.26;40.84;98280.59;108085;1266;59039;-76
2022/10/10 09:12:35;;;;;;;6.00;5.40;;;;;;;24.72;40.73;98278.14;108102;1267;58963;-73
2022/10/10 09:15:36;;;;;;;5.80;5.10;;;;;;;25.16;39.78;98274.85;107824;1267;69592;-74
2022/10/10 09:18:23;;;;;;;6.30;5.70;;;;;;;25.41;39.22;98274.48;107765;1267;69265;-74
2022/10/10 09:21:15;;;;;;;6.80;5.90;;;;;;;26.11;38.18;98272.55;107926;1265;69308;-73
2022/10/10 09:24:10;;;;;;;6.00;5.40;;;;;;;26.83;36.41;98272.24;107875;1263;58923;-75
2022/10/10 09:26:46;;;;;;;7.00;6.30;;;;;;;27.01;35.77;98274.08;108030;1267;58962;-73
2022/10/10 09:29:28;;;;;;;6.70;5.90;;;;;;;27.00;35.59;98270.89;108205;1267;70611;-72
2022/10/10 09:32:10;;;;;;;6.50;5.70;;;;;;;27.43;34.76;98270.20;108172;1266;69204;-73
2022/10/10 09:34:50;;;;;;;7.10;5.80;;;;;;;27.59;35.04;98269.23;107954;1266;69460;-74
2022/10/10 09:37:29;;;;;;;8.00;6.10;;;;;;;27.63;34.26;98266.30;107991;1266;58981;-73
2022/10/10 09:40:49;;;;;;;7.80;5.90;;;;;;;27.41;34.63;98260.92;108116;1263;58894;-73
2022/10/10 09:43:19;;;;;;;7.40;5.40;;;;;;;27.57;33.33;98256.27;107879;1263;71438;-74
2022/10/10 09:45:52;;;;;;;6.00;5.40;;;;;;;27.63;34.26;98258.00;107980;1267;69889;-73
2022/10/10 09:48:29;;;;;;;6.40;5.70;;;;;;;28.02;33.94;98257.09;107994;1258;69304;-74
2022/10/10 09:50:59;;;;;;;7.30;6.60;;;;;;;28.34;32.70;98251.85;107896;1263;58894;-74
2022/10/10 09:53:29;;;;;;;5.70;5.10;;;;;;;28.16;32.91;98246.55;107853;1263;58959;-73
2022/10/10 09:55:58;;;;;;;6.30;5.30;;;;;;;28.40;32.53;98244.86;108143;1266;72186;-73
2022/10/10 09:58:47;;;;;;;6.80;4.90;;;;;;;28.33;33.01;98241.58;107861;1262;69214;-73
2022/10/10 10:01:32;;;;;;;5.10;4.60;;;;;;;27.58;34.14;98240.90;107775;1266;70053;-72
2022/10/10 10:04:19;;;;;;;7.10;5.00;;;;;;;26.85;34.29;98239.38;107908;1267;59307;-73
2022/10/10 10:07:25;;;;;;;5.60;5.10;;;;;;;28.18;32.48;98235.75;107755;1267;58849;-74
2022/10/10 10:10:25;;;;;;;8.10;6.00;;;;;;;27.74;32.27;98227.73;108046;1262;70668;-73
2022/10/10 10:13:00;;;;;;;7.10;5.60;;;;;;;27.91;32.29;98224.36;107841;1262;69100;-75
2022/10/10 10:15:31;;;;;;;4.30;3.80;;;;;;;28.46;31.64;98222.80;107982;1262;69103;-75
2022/10/10 10:18:20;;;;;;;6.60;4.60;;;;;;;29.05;31.05;98220.61;108077;1267;58961;-73
2022/10/10 10:21:07;;;;;;;6.50;4.90;;;;;;;29.02;29.72;98215.61;107810;1252;58856;-72
2022/10/10 10:23:50;;;;;;;5.90;5.20;;;;;;;29.16;30.06;98212.07;108136;1262;70614;-74
2022/10/10 10:26:32;;;;;;;5.80;5.00;;;;;;;28.55;31.69;98206.66;108035;1265;68867;-73
2022/10/10 10:29:02;;;;;;;6.00;4.60;;;;;;;29.84;31.28;98203.39;107813;1266;68799;-72
2022/10/10 10:31:59;;;;;;;7.20;5.50;;;;;;;30.70;29.25;98205.17;108051;1267;59004;-72
2022/10/10 10:35:03;;;;;;;6.30;4.80;;;;;;;30.40;28.95;98200.52;108186;1263;58981;-72
2022/10/10 10:37:52;;;;;;;4.90;4.40;;;;;;;29.56;29.82;98197.96;107931;1267;70541;-73
2022/10/10 10:40:40;;;;;;;6.60;5.00;;;;;;;29.59;29.42;98195.52;107945;1259;68672;-72
2022/10/10 10:43:18;;;;;;;5.20;4.60;;;;;;;29.15;30.55;98195.57;108026;1263;69662;-72
2022/10/10 10:46:02;;;;;;;5.20;4.70;;;;;;;29.39;29.68;98189.38;107826;1267;58901;-73
2022/10/10 10:48:58;;;;;;;5.70;4.50;;;;;;;29.52;28.83;98185.17;107696;1267;58954;-73
2022/10/10 10:51:49;;;;;;;5.30;4.20;;;;;;;30.13;29.15;98182.39;108156;1259;69680;-73
2022/10/10 10:54:39;;;;;;;5.50;4.90;;;;;;;31.02;27.27;98181.48;107890;1266;69130;-74
2022/10/10 10:57:32;;;;;;;6.40;5.00;;;;;;;31.02;27.01;98177.68;108073;1266;69919;-74
2022/10/10 11:00:17;;;;;;;5.00;4.50;;;;;;;30.79;27.00;98173.83;108031;1263;58916;-74
2022/10/10 11:03:39;;;;;;;8.20;4.50;;;;;;;31.29;26.86;98167.75;107707;1269;59277;-74
2022/10/10 11:07:08;;;;;;;5.30;4.30;;;;;;;30.21;26.94;98158.39;107606;1266;70730;-73
2022/10/10 11:10:02;;;;;;;5.80;4.80;;;;;;;30.45;26.95;98154.07;107771;1267;69206;-74
2022/10/10 11:13:01;;;;;;;6.10;4.70;;;;;;;30.87;26.41;98154.20;107986;1262;70256;-73
2022/10/10 11:15:42;;;;;;;5.90;4.90;;;;;;;31.66;25.87;98151.33;107763;1263;58962;-74
2022/10/10 11:18:40;;;;;;;4.30;3.80;;;;;;;31.36;25.20;98155.81;108015;1266;59407;-72
2022/10/10 11:21:16;;;;;;;5.30;4.80;;;;;;;30.58;25.68;98150.64;107855;1266;70552;-74
2022/10/10 11:23:53;;;;;;;6.30;5.20;;;;;;;27.46;29.36;98143.29;107958;1266;69779;-73
2022/10/10 11:26:31;;;;;;;6.20;4.20;;;;;;;27.67;30.12;98137.77;108168;1267;69936;-73
2022/10/10 11:29:10;;;;;;;5.70;3.90;;;;;;;28.62;29.00;98133.61;107889;1262;58914;-74
2022/10/10 11:31:46;;;;;;;7.70;4.50;;;;;;;29.24;27.92;98129.88;107891;1264;58823;-73
2022/10/10 11:34:29;;;;;;;7.10;4.10;;;;;;;29.26;27.96;98128.33;107855;1267;69450;-73
2022/10/10 11:37:10;;;;;;;4.80;4.10;;;;;;;30.02;27.67;98121.38;107851;1266;69902;-74
2022/10/10 11:39:45;;;;;;;6.80;4.50;;;;;;;30.53;26.83;98123.61;107937;1266;69306;-74
2022/10/10 11:42:20;;;;;;;5.30;4.40;;;;;;;31.11;26.02;98118.56;107891;1267;59026;-73
2022/10/10 11:44:57;;;;;;;4.60;3.90;;;;;;;31.69;25.36;98114.55;107672;1263;58947;-75
2022/10/10 11:47:35;;;;;;;5.50;4.60;;;;;;;31.55;24.69;98110.59;107829;1263;69646;-74
2022/10/10 11:50:10;;;;;;;;;;;;;;;30.79;26.44;98107.22;107998;1262;69892;-74
2022/10/10 11:53:19;;;;;;;6.20;4.90;;;;;;;31.06;25.43;98107.38;107946;1266;69255;-73
2022/10/10 11:56:09;;;;;;;5.70;3.90;;;;;;;31.31;25.58;98100.76;107899;1265;58992;-73